Fountain City, Tennessee
Current Conditions -  °F | °C
As of 12:53 PM on Thursday 23 Oct 2014 (Local Time) from KOQT Reporting Station
Clear Clear  
Wind Chill: 58°   Ceiling: Unl
Heat Index: 58°   Visibility: 10mi
Dew Point: 41°   Wind: 5mph
Humidity: 53%   Direction: NA
Pressure: 30.2"   Gusts: NA
Location:  36.1232°N, 83.9406°W
Report Text: KOQT 231653Z AUTO VRB04KT 10SM CLR 14/05 A3020 RMK AO2 SLP228 T01440050
Loading
Personal Weather Stations






























Interactive Weather Map
Tropical Storm Tracking
New forecast layout! Learn more

10-Day Weather Forecast

Advertisements
Track Severe Weather on mobile